sensor_id;sensor_type;location;lat;lon;timestamp;P1;durP1;ratioP1;P2;durP2;ratioP2
26820;SDS011;37186;51.394;5.454;2022-10-14T00:02:36;9.88;;;9.57;;
26820;SDS011;37186;51.394;5.454;2022-10-14T00:05:39;10.77;;;10.48;;
26820;SDS011;37186;51.394;5.454;2022-10-14T00:08:40;10.32;;;10.02;;
26820;SDS011;37186;51.394;5.454;2022-10-14T00:11:42;10.35;;;10.05;;
26820;SDS011;37186;51.394;5.454;2022-10-14T00:14:42;10.25;;;9.95;;
26820;SDS011;37186;51.394;5.454;2022-10-14T00:17:43;10.35;;;10.05;;
26820;SDS011;37186;51.394;5.454;2022-10-14T00:20:52;10.45;;;10.15;;
26820;SDS011;37186;51.394;5.454;2022-10-14T00:23:56;10.73;;;10.43;;
26820;SDS011;37186;51.394;5.454;2022-10-14T00:26:57;9.20;;;8.90;;
26820;SDS011;37186;51.394;5.454;2022-10-14T00:29:58;10.20;;;9.90;;
26820;SDS011;37186;51.394;5.454;2022-10-14T00:32:58;9.68;;;9.38;;
26820;SDS011;37186;51.394;5.454;2022-10-14T00:36:00;10.38;;;10.07;;
26820;SDS011;37186;51.394;5.454;2022-10-14T00:39:02;11.00;;;10.70;;
26820;SDS011;37186;51.394;5.454;2022-10-14T00:42:03;10.25;;;9.95;;
26820;SDS011;37186;51.394;5.454;2022-10-14T00:45:05;10.35;;;10.05;;
26820;SDS011;37186;51.394;5.454;2022-10-14T00:48:10;10.23;;;9.93;;
26820;SDS011;37186;51.394;5.454;2022-10-14T00:51:12;10.48;;;10.18;;
26820;SDS011;37186;51.394;5.454;2022-10-14T00:54:14;10.32;;;10.02;;
26820;SDS011;37186;51.394;5.454;2022-10-14T00:57:16;10.68;;;10.38;;
26820;SDS011;37186;51.394;5.454;2022-10-14T01:00:18;10.57;;;10.27;;
26820;SDS011;37186;51.394;5.454;2022-10-14T01:03:21;10.25;;;9.95;;
26820;SDS011;37186;51.394;5.454;2022-10-14T01:06:29;10.20;;;9.90;;
26820;SDS011;37186;51.394;5.454;2022-10-14T01:09:46;10.77;;;10.48;;
26820;SDS011;37186;51.394;5.454;2022-10-14T01:13:02;10.68;;;10.38;;
26820;SDS011;37186;51.394;5.454;2022-10-14T01:19:31;10.80;;;10.50;;
26820;SDS011;37186;51.394;5.454;2022-10-14T01:35:30;10.07;;;9.77;;
26820;SDS011;37186;51.394;5.454;2022-10-14T01:38:56;10.35;;;10.05;;
26820;SDS011;37186;51.394;5.454;2022-10-14T01:42:03;10.48;;;10.18;;
26820;SDS011;37186;51.394;5.454;2022-10-14T01:45:14;9.68;;;9.38;;
26820;SDS011;37186;51.394;5.454;2022-10-14T01:48:19;10.18;;;9.88;;
26820;SDS011;37186;51.394;5.454;2022-10-14T01:51:32;9.95;;;9.65;;
26820;SDS011;37186;51.394;5.454;2022-10-14T01:54:39;10.35;;;10.05;;
26820;SDS011;37186;51.394;5.454;2022-10-14T01:57:41;9.93;;;9.63;;
26820;SDS011;37186;51.394;5.454;2022-10-14T02:00:44;10.45;;;10.15;;
26820;SDS011;37186;51.394;5.454;2022-10-14T02:03:46;9.20;;;8.90;;
26820;SDS011;37186;51.394;5.454;2022-10-14T02:06:49;9.70;;;9.40;;
26820;SDS011;37186;51.394;5.454;2022-10-14T02:10:09;9.07;;;8.80;;
26820;SDS011;37186;51.394;5.454;2022-10-14T02:13:28;9.02;;;8.75;;
26820;SDS011;37186;51.394;5.454;2022-10-14T02:23:31;9.48;;;9.18;;
26820;SDS011;37186;51.394;5.454;2022-10-14T02:26:37;8.85;;;8.60;;
26820;SDS011;37186;51.394;5.454;2022-10-14T02:29:40;8.50;;;8.30;;
26820;SDS011;37186;51.394;5.454;2022-10-14T02:32:43;8.77;;;8.55;;
26820;SDS011;37186;51.394;5.454;2022-10-14T02:35:45;9.00;;;8.73;;
26820;SDS011;37186;51.394;5.454;2022-10-14T02:38:47;8.63;;;8.40;;
26820;SDS011;37186;51.394;5.454;2022-10-14T02:41:49;8.70;;;8.48;;
26820;SDS011;37186;51.394;5.454;2022-10-14T02:44:50;9.15;;;8.85;;
26820;SDS011;37186;51.394;5.454;2022-10-14T02:47:56;8.65;;;8.43;;
26820;SDS011;37186;51.394;5.454;2022-10-14T02:50:56;9.25;;;8.95;;
26820;SDS011;37186;51.394;5.454;2022-10-14T02:53:56;9.43;;;9.13;;
26820;SDS011;37186;51.394;5.454;2022-10-14T02:56:57;8.30;;;8.10;;
26820;SDS011;37186;51.394;5.454;2022-10-14T02:59:58;8.45;;;8.23;;
26820;SDS011;37186;51.394;5.454;2022-10-14T03:02:58;8.98;;;8.70;;
26820;SDS011;37186;51.394;5.454;2022-10-14T03:05:59;8.77;;;8.52;;
26820;SDS011;37186;51.394;5.454;2022-10-14T03:08:59;8.20;;;8.00;;
26820;SDS011;37186;51.394;5.454;2022-10-14T03:12:00;8.80;;;8.55;;
26820;SDS011;37186;51.394;5.454;2022-10-14T03:15:01;9.35;;;9.05;;
26820;SDS011;37186;51.394;5.454;2022-10-14T03:18:02;8.30;;;8.10;;
26820;SDS011;37186;51.394;5.454;2022-10-14T03:21:03;8.65;;;8.43;;
26820;SDS011;37186;51.394;5.454;2022-10-14T03:24:03;8.60;;;8.40;;
26820;SDS011;37186;51.394;5.454;2022-10-14T03:27:04;8.77;;;8.55;;
26820;SDS011;37186;51.394;5.454;2022-10-14T03:30:05;8.52;;;8.32;;
26820;SDS011;37186;51.394;5.454;2022-10-14T03:33:06;8.18;;;7.97;;
26820;SDS011;37186;51.394;5.454;2022-10-14T03:36:07;8.70;;;8.48;;
26820;SDS011;37186;51.394;5.454;2022-10-14T03:39:10;8.60;;;8.40;;
26820;SDS011;37186;51.394;5.454;2022-10-14T03:42:11;7.93;;;7.72;;
26820;SDS011;37186;51.394;5.454;2022-10-14T03:45:11;7.72;;;7.53;;
26820;SDS011;37186;51.394;5.454;2022-10-14T03:48:12;8.18;;;7.97;;
26820;SDS011;37186;51.394;5.454;2022-10-14T03:51:13;7.93;;;7.72;;
26820;SDS011;37186;51.394;5.454;2022-10-14T03:54:14;8.13;;;7.93;;
26820;SDS011;37186;51.394;5.454;2022-10-14T03:57:14;7.82;;;7.63;;
26820;SDS011;37186;51.394;5.454;2022-10-14T04:00:15;8.02;;;7.82;;
26820;SDS011;37186;51.394;5.454;2022-10-14T04:03:15;8.07;;;7.88;;
26820;SDS011;37186;51.394;5.454;2022-10-14T04:06:16;8.07;;;7.88;;
26820;SDS011;37186;51.394;5.454;2022-10-14T04:09:16;8.27;;;8.07;;
26820;SDS011;37186;51.394;5.454;2022-10-14T04:12:17;7.80;;;7.60;;
26820;SDS011;37186;51.394;5.454;2022-10-14T04:15:17;8.23;;;8.02;;
26820;SDS011;37186;51.394;5.454;2022-10-14T04:18:18;7.65;;;7.45;;
26820;SDS011;37186;51.394;5.454;2022-10-14T04:21:19;7.95;;;7.75;;
26820;SDS011;37186;51.394;5.454;2022-10-14T04:24:20;8.20;;;8.00;;
26820;SDS011;37186;51.394;5.454;2022-10-14T04:27:20;7.30;;;7.10;;
26820;SDS011;37186;51.394;5.454;2022-10-14T04:30:21;7.57;;;7.38;;
26820;SDS011;37186;51.394;5.454;2022-10-14T04:33:21;7.35;;;7.15;;
26820;SDS011;37186;51.394;5.454;2022-10-14T04:36:22;7.85;;;7.65;;
26820;SDS011;37186;51.394;5.454;2022-10-14T04:39:23;7.97;;;7.78;;
26820;SDS011;37186;51.394;5.454;2022-10-14T04:42:23;7.57;;;7.38;;
26820;SDS011;37186;51.394;5.454;2022-10-14T04:45:24;7.65;;;7.45;;
26820;SDS011;37186;51.394;5.454;2022-10-14T04:48:24;7.68;;;7.47;;
26820;SDS011;37186;51.394;5.454;2022-10-14T04:51:25;7.78;;;7.57;;
26820;SDS011;37186;51.394;5.454;2022-10-14T04:54:25;8.07;;;7.88;;
26820;SDS011;37186;51.394;5.454;2022-10-14T04:57:26;7.88;;;7.68;;
26820;SDS011;37186;51.394;5.454;2022-10-14T05:00:27;7.32;;;7.13;;
26820;SDS011;37186;51.394;5.454;2022-10-14T05:03:27;7.63;;;7.43;;
26820;SDS011;37186;51.394;5.454;2022-10-14T05:06:28;7.38;;;7.18;;
26820;SDS011;37186;51.394;5.454;2022-10-14T05:09:28;7.80;;;7.60;;
26820;SDS011;37186;51.394;5.454;2022-10-14T05:12:30;7.32;;;7.13;;
26820;SDS011;37186;51.394;5.454;2022-10-14T05:15:30;7.82;;;7.63;;
26820;SDS011;37186;51.394;5.454;2022-10-14T05:18:32;7.40;;;7.20;;
26820;SDS011;37186;51.394;5.454;2022-10-14T05:21:32;7.78;;;7.57;;
26820;SDS011;37186;51.394;5.454;2022-10-14T05:24:33;7.32;;;7.13;;
26820;SDS011;37186;51.394;5.454;2022-10-14T05:27:33;7.32;;;7.13;;
26820;SDS011;37186;51.394;5.454;2022-10-14T05:30:34;7.32;;;7.13;;
26820;SDS011;37186;51.394;5.454;2022-10-14T05:33:34;7.15;;;6.95;;
26820;SDS011;37186;51.394;5.454;2022-10-14T05:36:36;7.15;;;6.95;;
26820;SDS011;37186;51.394;5.454;2022-10-14T05:39:36;7.43;;;7.22;;
26820;SDS011;37186;51.394;5.454;2022-10-14T05:42:37;7.30;;;7.10;;
26820;SDS011;37186;51.394;5.454;2022-10-14T05:45:37;7.28;;;7.07;;
26820;SDS011;37186;51.394;5.454;2022-10-14T05:48:38;7.13;;;6.93;;
26820;SDS011;37186;51.394;5.454;2022-10-14T05:51:38;7.10;;;6.90;;
26820;SDS011;37186;51.394;5.454;2022-10-14T05:54:39;7.03;;;6.82;;
26820;SDS011;37186;51.394;5.454;2022-10-14T05:57:39;7.40;;;7.20;;
26820;SDS011;37186;51.394;5.454;2022-10-14T06:00:42;7.05;;;6.85;;
26820;SDS011;37186;51.394;5.454;2022-10-14T06:03:43;6.97;;;6.78;;
26820;SDS011;37186;51.394;5.454;2022-10-14T06:06:43;7.07;;;6.88;;
26820;SDS011;37186;51.394;5.454;2022-10-14T06:09:44;7.03;;;6.82;;
26820;SDS011;37186;51.394;5.454;2022-10-14T06:12:44;6.88;;;6.68;;
26820;SDS011;37186;51.394;5.454;2022-10-14T06:15:45;6.78;;;6.57;;
26820;SDS011;37186;51.394;5.454;2022-10-14T06:18:45;6.80;;;6.60;;
26820;SDS011;37186;51.394;5.454;2022-10-14T06:21:46;6.88;;;6.68;;
26820;SDS011;37186;51.394;5.454;2022-10-14T06:24:47;6.55;;;6.35;;
26820;SDS011;37186;51.394;5.454;2022-10-14T06:27:47;6.68;;;6.47;;
26820;SDS011;37186;51.394;5.454;2022-10-14T06:30:48;6.93;;;6.72;;
26820;SDS011;37186;51.394;5.454;2022-10-14T06:33:53;6.43;;;6.22;;
26820;SDS011;37186;51.394;5.454;2022-10-14T06:36:53;6.15;;;5.95;;
26820;SDS011;37186;51.394;5.454;2022-10-14T06:39:54;6.13;;;5.95;;
26820;SDS011;37186;51.394;5.454;2022-10-14T06:42:56;6.35;;;6.15;;
26820;SDS011;37186;51.394;5.454;2022-10-14T06:45:57;6.45;;;6.25;;
26820;SDS011;37186;51.394;5.454;2022-10-14T06:48:58;6.15;;;5.95;;
26820;SDS011;37186;51.394;5.454;2022-10-14T06:51:58;5.60;;;5.47;;
26820;SDS011;37186;51.394;5.454;2022-10-14T06:54:59;6.25;;;6.05;;
26820;SDS011;37186;51.394;5.454;2022-10-14T06:58:00;6.40;;;6.20;;
26820;SDS011;37186;51.394;5.454;2022-10-14T07:01:01;6.63;;;6.43;;
26820;SDS011;37186;51.394;5.454;2022-10-14T07:04:03;6.38;;;6.18;;
26820;SDS011;37186;51.394;5.454;2022-10-14T07:07:05;6.40;;;6.20;;
26820;SDS011;37186;51.394;5.454;2022-10-14T07:10:06;6.63;;;6.43;;
26820;SDS011;37186;51.394;5.454;2022-10-14T07:13:07;6.85;;;6.65;;
26820;SDS011;37186;51.394;5.454;2022-10-14T07:16:07;6.50;;;6.30;;
26820;SDS011;37186;51.394;5.454;2022-10-14T07:19:08;6.50;;;6.30;;
26820;SDS011;37186;51.394;5.454;2022-10-14T07:22:08;6.85;;;6.65;;
26820;SDS011;37186;51.394;5.454;2022-10-14T07:25:09;6.65;;;6.45;;
26820;SDS011;37186;51.394;5.454;2022-10-14T07:28:10;6.85;;;6.65;;
26820;SDS011;37186;51.394;5.454;2022-10-14T07:31:10;7.45;;;7.25;;
26820;SDS011;37186;51.394;5.454;2022-10-14T07:34:12;6.47;;;6.28;;
26820;SDS011;37186;51.394;5.454;2022-10-14T07:37:13;6.80;;;6.60;;
26820;SDS011;37186;51.394;5.454;2022-10-14T07:40:13;6.50;;;6.30;;
26820;SDS011;37186;51.394;5.454;2022-10-14T07:43:14;6.97;;;6.78;;
26820;SDS011;37186;51.394;5.454;2022-10-14T07:46:15;6.80;;;6.60;;
26820;SDS011;37186;51.394;5.454;2022-10-14T07:49:27;6.68;;;6.47;;
26820;SDS011;37186;51.394;5.454;2022-10-14T07:52:28;6.95;;;6.75;;
26820;SDS011;37186;51.394;5.454;2022-10-14T07:55:28;6.60;;;6.40;;
26820;SDS011;37186;51.394;5.454;2022-10-14T07:58:29;7.47;;;7.28;;
26820;SDS011;37186;51.394;5.454;2022-10-14T08:01:30;7.30;;;7.10;;
26820;SDS011;37186;51.394;5.454;2022-10-14T08:04:31;7.47;;;7.28;;
26820;SDS011;37186;51.394;5.454;2022-10-14T08:07:31;7.45;;;7.25;;
26820;SDS011;37186;51.394;5.454;2022-10-14T08:10:32;8.02;;;7.82;;
26820;SDS011;37186;51.394;5.454;2022-10-14T08:13:33;8.25;;;8.05;;
26820;SDS011;37186;51.394;5.454;2022-10-14T08:16:34;8.60;;;8.35;;
26820;SDS011;37186;51.394;5.454;2022-10-14T08:19:36;8.27;;;8.07;;
26820;SDS011;37186;51.394;5.454;2022-10-14T08:22:37;8.93;;;8.68;;
26820;SDS011;37186;51.394;5.454;2022-10-14T08:25:37;9.00;;;8.73;;
26820;SDS011;37186;51.394;5.454;2022-10-14T08:28:38;9.30;;;9.00;;
26820;SDS011;37186;51.394;5.454;2022-10-14T08:31:39;9.13;;;8.82;;
26820;SDS011;37186;51.394;5.454;2022-10-14T08:34:39;9.40;;;9.10;;
26820;SDS011;37186;51.394;5.454;2022-10-14T08:37:40;9.25;;;8.95;;
26820;SDS011;37186;51.394;5.454;2022-10-14T08:41:06;9.45;;;9.15;;
26820;SDS011;37186;51.394;5.454;2022-10-14T08:44:19;9.38;;;9.07;;
26820;SDS011;37186;51.394;5.454;2022-10-14T08:47:34;9.13;;;8.82;;
26820;SDS011;37186;51.394;5.454;2022-10-14T08:50:45;9.57;;;9.27;;
26820;SDS011;37186;51.394;5.454;2022-10-14T08:53:51;10.35;;;10.05;;
26820;SDS011;37186;51.394;5.454;2022-10-14T08:56:57;9.50;;;9.20;;
26820;SDS011;37186;51.394;5.454;2022-10-14T08:59:58;9.70;;;9.40;;
26820;SDS011;37186;51.394;5.454;2022-10-14T09:02:59;9.88;;;9.57;;
26820;SDS011;37186;51.394;5.454;2022-10-14T09:06:23;10.05;;;9.75;;
26820;SDS011;37186;51.394;5.454;2022-10-14T09:09:29;10.00;;;9.70;;
26820;SDS011;37186;51.394;5.454;2022-10-14T09:12:42;10.38;;;10.07;;
26820;SDS011;37186;51.394;5.454;2022-10-14T09:15:51;9.95;;;9.65;;
26820;SDS011;37186;51.394;5.454;2022-10-14T09:19:00;10.38;;;10.07;;
26820;SDS011;37186;51.394;5.454;2022-10-14T09:22:07;10.60;;;10.30;;
26820;SDS011;37186;51.394;5.454;2022-10-14T09:25:13;10.50;;;10.20;;
26820;SDS011;37186;51.394;5.454;2022-10-14T09:28:15;11.23;;;10.93;;
26820;SDS011;37186;51.394;5.454;2022-10-14T09:31:15;11.40;;;11.07;;
26820;SDS011;37186;51.394;5.454;2022-10-14T09:34:17;11.68;;;11.32;;
26820;SDS011;37186;51.394;5.454;2022-10-14T09:37:32;10.40;;;10.10;;
26820;SDS011;37186;51.394;5.454;2022-10-14T09:40:34;11.50;;;11.15;;
26820;SDS011;37186;51.394;5.454;2022-10-14T09:43:36;12.20;;;11.82;;
26820;SDS011;37186;51.394;5.454;2022-10-14T09:46:37;11.10;;;10.80;;
26820;SDS011;37186;51.394;5.454;2022-10-14T09:49:41;10.88;;;10.57;;
26820;SDS011;37186;51.394;5.454;2022-10-14T09:52:47;11.43;;;11.13;;
26820;SDS011;37186;51.394;5.454;2022-10-14T09:55:57;11.27;;;10.98;;
26820;SDS011;37186;51.394;5.454;2022-10-14T09:58:59;10.43;;;10.13;;
26820;SDS011;37186;51.394;5.454;2022-10-14T10:02:01;11.27;;;10.98;;
26820;SDS011;37186;51.394;5.454;2022-10-14T10:05:26;11.50;;;11.20;;
26820;SDS011;37186;51.394;5.454;2022-10-14T10:08:26;10.65;;;10.35;;
26820;SDS011;37186;51.394;5.454;2022-10-14T10:11:36;11.20;;;10.90;;
26820;SDS011;37186;51.394;5.454;2022-10-14T10:14:38;11.25;;;10.95;;
26820;SDS011;37186;51.394;5.454;2022-10-14T10:17:39;11.52;;;11.23;;
26820;SDS011;37186;51.394;5.454;2022-10-14T10:20:39;11.10;;;10.80;;
26820;SDS011;37186;51.394;5.454;2022-10-14T10:23:48;10.95;;;10.65;;
26820;SDS011;37186;51.394;5.454;2022-10-14T10:26:51;11.50;;;11.20;;
26820;SDS011;37186;51.394;5.454;2022-10-14T10:29:52;11.50;;;11.20;;
26820;SDS011;37186;51.394;5.454;2022-10-14T10:36:28;10.77;;;10.48;;
26820;SDS011;37186;51.394;5.454;2022-10-14T10:39:46;10.75;;;10.45;;
26820;SDS011;37186;51.394;5.454;2022-10-14T10:43:23;11.23;;;10.93;;
26820;SDS011;37186;51.394;5.454;2022-10-14T10:46:34;11.85;;;11.50;;
26820;SDS011;37186;51.394;5.454;2022-10-14T10:56:41;13.07;;;12.68;;
26820;SDS011;37186;51.394;5.454;2022-10-14T11:06:33;13.52;;;13.13;;
26820;SDS011;37186;51.394;5.454;2022-10-14T11:14:14;11.98;;;11.63;;
26820;SDS011;37186;51.394;5.454;2022-10-14T11:20:59;12.77;;;12.38;;
26820;SDS011;37186;51.394;5.454;2022-10-14T11:40:32;14.07;;;13.68;;
26820;SDS011;37186;51.394;5.454;2022-10-14T11:43:40;13.90;;;13.50;;
26820;SDS011;37186;51.394;5.454;2022-10-14T11:47:01;15.52;;;15.02;;
26820;SDS011;37186;51.394;5.454;2022-10-14T11:53:23;15.13;;;14.65;;
26820;SDS011;37186;51.394;5.454;2022-10-14T12:00:05;15.60;;;15.10;;
26820;SDS011;37186;51.394;5.454;2022-10-14T12:07:04;15.63;;;15.13;;
26820;SDS011;37186;51.394;5.454;2022-10-14T12:10:18;16.08;;;15.57;;
26820;SDS011;37186;51.394;5.454;2022-10-14T12:13:26;16.60;;;16.10;;
26820;SDS011;37186;51.394;5.454;2022-10-14T12:16:35;15.70;;;15.20;;
26820;SDS011;37186;51.394;5.454;2022-10-14T12:19:40;16.35;;;15.85;;
26820;SDS011;37186;51.394;5.454;2022-10-14T12:22:41;16.65;;;16.15;;
26820;SDS011;37186;51.394;5.454;2022-10-14T12:25:47;16.17;;;15.68;;
26820;SDS011;37186;51.394;5.454;2022-10-14T12:28:57;16.02;;;15.52;;
26820;SDS011;37186;51.394;5.454;2022-10-14T12:35:14;17.33;;;16.80;;
26820;SDS011;37186;51.394;5.454;2022-10-14T12:38:41;16.38;;;15.88;;
26820;SDS011;37186;51.394;5.454;2022-10-14T12:41:58;17.05;;;16.52;;
26820;SDS011;37186;51.394;5.454;2022-10-14T12:45:29;16.75;;;16.25;;
26820;SDS011;37186;51.394;5.454;2022-10-14T12:48:33;16.83;;;16.33;;
26820;SDS011;37186;51.394;5.454;2022-10-14T12:51:34;15.77;;;15.27;;
26820;SDS011;37186;51.394;5.454;2022-10-14T12:54:35;15.77;;;15.27;;
26820;SDS011;37186;51.394;5.454;2022-10-14T12:57:50;14.95;;;14.50;;
26820;SDS011;37186;51.394;5.454;2022-10-14T13:00:55;15.45;;;14.98;;
26820;SDS011;37186;51.394;5.454;2022-10-14T13:04:06;15.07;;;14.63;;
26820;SDS011;37186;51.394;5.454;2022-10-14T13:10:39;16.13;;;15.63;;
26820;SDS011;37186;51.394;5.454;2022-10-14T13:19:51;14.63;;;14.18;;
26820;SDS011;37186;51.394;5.454;2022-10-14T13:22:52;15.35;;;14.88;;
26820;SDS011;37186;51.394;5.454;2022-10-14T13:25:53;16.27;;;15.77;;
26820;SDS011;37186;51.394;5.454;2022-10-14T13:38:53;14.68;;;14.25;;
26820;SDS011;37186;51.394;5.454;2022-10-14T13:41:56;15.90;;;15.40;;
26820;SDS011;37186;51.394;5.454;2022-10-14T13:45:03;15.90;;;15.40;;
26820;SDS011;37186;51.394;5.454;2022-10-14T13:48:15;15.48;;;14.98;;
26820;SDS011;37186;51.394;5.454;2022-10-14T13:54:27;15.60;;;15.10;;
26820;SDS011;37186;51.394;5.454;2022-10-14T13:57:31;15.98;;;15.48;;
26820;SDS011;37186;51.394;5.454;2022-10-14T14:00:32;16.52;;;16.02;;
26820;SDS011;37186;51.394;5.454;2022-10-14T14:03:35;16.77;;;16.27;;
26820;SDS011;37186;51.394;5.454;2022-10-14T14:06:42;17.35;;;16.85;;
26820;SDS011;37186;51.394;5.454;2022-10-14T14:09:48;17.10;;;16.60;;
26820;SDS011;37186;51.394;5.454;2022-10-14T14:12:50;17.35;;;16.83;;
26820;SDS011;37186;51.394;5.454;2022-10-14T14:15:52;18.92;;;18.33;;
26820;SDS011;37186;51.394;5.454;2022-10-14T14:18:53;18.23;;;17.63;;
26820;SDS011;37186;51.394;5.454;2022-10-14T14:25:23;18.67;;;18.08;;
26820;SDS011;37186;51.394;5.454;2022-10-14T14:28:29;20.15;;;19.50;;
26820;SDS011;37186;51.394;5.454;2022-10-14T14:31:31;21.00;;;20.30;;
26820;SDS011;37186;51.394;5.454;2022-10-14T14:34:33;20.40;;;19.75;;
26820;SDS011;37186;51.394;5.454;2022-10-14T14:37:36;21.13;;;20.42;;
26820;SDS011;37186;51.394;5.454;2022-10-14T14:40:40;21.15;;;20.45;;
26820;SDS011;37186;51.394;5.454;2022-10-14T14:43:41;20.63;;;19.98;;
26820;SDS011;37186;51.394;5.454;2022-10-14T14:46:42;20.05;;;19.42;;
26820;SDS011;37186;51.394;5.454;2022-10-14T14:49:44;19.52;;;18.92;;
26820;SDS011;37186;51.394;5.454;2022-10-14T14:52:45;20.05;;;19.42;;
26820;SDS011;37186;51.394;5.454;2022-10-14T15:02:21;19.73;;;19.13;;
26820;SDS011;37186;51.394;5.454;2022-10-14T15:05:24;18.98;;;18.38;;
26820;SDS011;37186;51.394;5.454;2022-10-14T15:08:26;20.90;;;20.20;;
26820;SDS011;37186;51.394;5.454;2022-10-14T15:11:28;18.95;;;18.35;;
26820;SDS011;37186;51.394;5.454;2022-10-14T15:14:35;19.90;;;19.30;;
26820;SDS011;37186;51.394;5.454;2022-10-14T15:18:02;18.60;;;18.00;;
26820;SDS011;37186;51.394;5.454;2022-10-14T15:21:15;18.52;;;17.92;;
26820;SDS011;37186;51.394;5.454;2022-10-14T15:24:20;19.45;;;18.85;;
26820;SDS011;37186;51.394;5.454;2022-10-14T15:30:47;19.13;;;18.52;;
26820;SDS011;37186;51.394;5.454;2022-10-14T15:33:52;19.67;;;19.08;;
26820;SDS011;37186;51.394;5.454;2022-10-14T15:36:52;18.75;;;18.15;;
26820;SDS011;37186;51.394;5.454;2022-10-14T15:40:03;20.63;;;19.95;;
26820;SDS011;37186;51.394;5.454;2022-10-14T15:43:10;19.73;;;19.13;;
26820;SDS011;37186;51.394;5.454;2022-10-14T15:46:13;19.25;;;18.65;;
26820;SDS011;37186;51.394;5.454;2022-10-14T15:49:33;19.52;;;18.92;;
26820;SDS011;37186;51.394;5.454;2022-10-14T15:52:36;20.55;;;19.88;;
26820;SDS011;37186;51.394;5.454;2022-10-14T15:55:37;18.98;;;18.38;;
26820;SDS011;37186;51.394;5.454;2022-10-14T15:58:37;18.85;;;18.25;;
26820;SDS011;37186;51.394;5.454;2022-10-14T16:01:38;18.42;;;17.83;;
26820;SDS011;37186;51.394;5.454;2022-10-14T16:04:40;17.63;;;17.08;;
26820;SDS011;37186;51.394;5.454;2022-10-14T16:07:40;19.38;;;18.77;;
26820;SDS011;37186;51.394;5.454;2022-10-14T16:10:43;17.73;;;17.17;;
26820;SDS011;37186;51.394;5.454;2022-10-14T16:13:46;18.02;;;17.42;;
26820;SDS011;37186;51.394;5.454;2022-10-14T16:16:46;18.15;;;17.55;;
26820;SDS011;37186;51.394;5.454;2022-10-14T16:19:47;18.27;;;17.67;;
26820;SDS011;37186;51.394;5.454;2022-10-14T16:22:47;17.55;;;17.00;;
26820;SDS011;37186;51.394;5.454;2022-10-14T16:25:48;18.42;;;17.83;;
26820;SDS011;37186;51.394;5.454;2022-10-14T16:28:50;18.55;;;17.95;;
26820;SDS011;37186;51.394;5.454;2022-10-14T16:31:51;18.40;;;17.80;;
26820;SDS011;37186;51.394;5.454;2022-10-14T16:34:52;17.55;;;17.00;;
26820;SDS011;37186;51.394;5.454;2022-10-14T16:37:53;17.20;;;16.67;;
26820;SDS011;37186;51.394;5.454;2022-10-14T16:40:54;17.20;;;16.70;;
26820;SDS011;37186;51.394;5.454;2022-10-14T16:43:56;17.50;;;16.98;;
26820;SDS011;37186;51.394;5.454;2022-10-14T16:46:57;17.63;;;17.08;;
26820;SDS011;37186;51.394;5.454;2022-10-14T16:50:16;16.70;;;16.20;;
26820;SDS011;37186;51.394;5.454;2022-10-14T16:53:17;17.80;;;17.20;;
26820;SDS011;37186;51.394;5.454;2022-10-14T16:56:38;16.42;;;15.93;;
26820;SDS011;37186;51.394;5.454;2022-10-14T16:59:53;16.67;;;16.17;;
26820;SDS011;37186;51.394;5.454;2022-10-14T17:02:53;17.55;;;17.00;;
26820;SDS011;37186;51.394;5.454;2022-10-14T17:05:57;18.40;;;17.80;;
26820;SDS011;37186;51.394;5.454;2022-10-14T17:08:58;17.95;;;17.38;;
26820;SDS011;37186;51.394;5.454;2022-10-14T17:11:58;17.70;;;17.15;;
26820;SDS011;37186;51.394;5.454;2022-10-14T17:14:59;17.42;;;16.90;;
26820;SDS011;37186;51.394;5.454;2022-10-14T17:18:00;17.80;;;17.23;;
26820;SDS011;37186;51.394;5.454;2022-10-14T17:21:01;18.27;;;17.67;;
26820;SDS011;37186;51.394;5.454;2022-10-14T17:24:09;17.88;;;17.27;;
26820;SDS011;37186;51.394;5.454;2022-10-14T17:27:10;18.65;;;18.05;;
26820;SDS011;37186;51.394;5.454;2022-10-14T17:30:10;18.50;;;17.90;;
26820;SDS011;37186;51.394;5.454;2022-10-14T17:33:11;19.45;;;18.85;;
26820;SDS011;37186;51.394;5.454;2022-10-14T17:36:14;18.75;;;18.15;;
26820;SDS011;37186;51.394;5.454;2022-10-14T17:39:16;18.90;;;18.30;;
26820;SDS011;37186;51.394;5.454;2022-10-14T17:42:18;18.52;;;17.92;;
26820;SDS011;37186;51.394;5.454;2022-10-14T17:45:18;20.00;;;19.40;;
26820;SDS011;37186;51.394;5.454;2022-10-14T17:48:19;20.05;;;19.45;;
26820;SDS011;37186;51.394;5.454;2022-10-14T17:51:20;18.92;;;18.33;;
26820;SDS011;37186;51.394;5.454;2022-10-14T17:54:24;19.52;;;18.92;;
26820;SDS011;37186;51.394;5.454;2022-10-14T17:57:24;21.20;;;20.50;;
26820;SDS011;37186;51.394;5.454;2022-10-14T18:00:25;19.35;;;18.75;;
26820;SDS011;37186;51.394;5.454;2022-10-14T18:03:25;18.85;;;18.25;;
26820;SDS011;37186;51.394;5.454;2022-10-14T18:06:29;19.35;;;18.75;;
26820;SDS011;37186;51.394;5.454;2022-10-14T18:09:31;20.08;;;19.48;;
26820;SDS011;37186;51.394;5.454;2022-10-14T18:12:33;20.70;;;20.00;;
26820;SDS011;37186;51.394;5.454;2022-10-14T18:15:34;20.85;;;20.15;;
26820;SDS011;37186;51.394;5.454;2022-10-14T18:18:35;20.98;;;20.27;;
26820;SDS011;37186;51.394;5.454;2022-10-14T18:21:36;21.85;;;21.15;;
26820;SDS011;37186;51.394;5.454;2022-10-14T18:24:37;21.38;;;20.67;;
26820;SDS011;37186;51.394;5.454;2022-10-14T18:27:38;20.48;;;19.80;;
26820;SDS011;37186;51.394;5.454;2022-10-14T18:30:38;19.90;;;19.30;;
26820;SDS011;37186;51.394;5.454;2022-10-14T18:33:39;21.00;;;20.30;;
26820;SDS011;37186;51.394;5.454;2022-10-14T18:36:41;21.40;;;20.70;;
26820;SDS011;37186;51.394;5.454;2022-10-14T18:39:41;21.30;;;20.60;;
26820;SDS011;37186;51.394;5.454;2022-10-14T18:42:43;20.80;;;20.10;;
26820;SDS011;37186;51.394;5.454;2022-10-14T18:45:44;20.75;;;20.05;;
26820;SDS011;37186;51.394;5.454;2022-10-14T18:48:45;20.77;;;20.08;;
26820;SDS011;37186;51.394;5.454;2022-10-14T18:51:47;20.25;;;19.65;;
26820;SDS011;37186;51.394;5.454;2022-10-14T18:54:48;20.27;;;19.63;;
26820;SDS011;37186;51.394;5.454;2022-10-14T18:57:48;20.00;;;19.40;;
26820;SDS011;37186;51.394;5.454;2022-10-14T19:00:49;20.85;;;20.15;;
26820;SDS011;37186;51.394;5.454;2022-10-14T19:03:51;21.42;;;20.73;;
26820;SDS011;37186;51.394;5.454;2022-10-14T19:06:52;20.83;;;20.13;;
26820;SDS011;37186;51.394;5.454;2022-10-14T19:09:53;20.52;;;19.83;;
26820;SDS011;37186;51.394;5.454;2022-10-14T19:12:53;20.85;;;20.15;;
26820;SDS011;37186;51.394;5.454;2022-10-14T19:16:01;20.45;;;19.77;;
26820;SDS011;37186;51.394;5.454;2022-10-14T19:19:04;20.55;;;19.85;;
26820;SDS011;37186;51.394;5.454;2022-10-14T19:22:10;20.02;;;19.42;;
26820;SDS011;37186;51.394;5.454;2022-10-14T19:25:10;19.80;;;19.20;;
26820;SDS011;37186;51.394;5.454;2022-10-14T19:28:11;19.27;;;18.67;;
26820;SDS011;37186;51.394;5.454;2022-10-14T19:31:16;20.52;;;19.85;;
26820;SDS011;37186;51.394;5.454;2022-10-14T19:34:18;20.00;;;19.40;;
26820;SDS011;37186;51.394;5.454;2022-10-14T19:37:18;20.50;;;19.83;;
26820;SDS011;37186;51.394;5.454;2022-10-14T19:40:19;19.33;;;18.73;;
26820;SDS011;37186;51.394;5.454;2022-10-14T19:43:19;20.27;;;19.65;;
26820;SDS011;37186;51.394;5.454;2022-10-14T19:46:20;21.13;;;20.42;;
26820;SDS011;37186;51.394;5.454;2022-10-14T19:49:22;19.38;;;18.77;;
26820;SDS011;37186;51.394;5.454;2022-10-14T19:52:23;19.13;;;18.52;;
26820;SDS011;37186;51.394;5.454;2022-10-14T19:55:23;19.02;;;18.42;;
26820;SDS011;37186;51.394;5.454;2022-10-14T19:58:24;19.58;;;18.98;;
26820;SDS011;37186;51.394;5.454;2022-10-14T20:01:26;19.17;;;18.58;;
26820;SDS011;37186;51.394;5.454;2022-10-14T20:04:28;19.73;;;19.10;;